createdAt,value
2022-09-16T00:00:48.135Z,89.36
2022-09-16T00:03:54.911Z,89.76
2022-09-16T00:06:56.391Z,89.87
2022-09-16T00:09:57.900Z,90.10
2022-09-16T00:12:59.452Z,90.44
2022-09-16T00:16:01.183Z,90.53
2022-09-16T00:19:03.555Z,90.49
2022-09-16T00:22:05.771Z,90.64
2022-09-16T00:25:07.667Z,90.37
2022-09-16T00:28:09.501Z,90.20
2022-09-16T00:31:11.246Z,90.78
2022-09-16T00:34:12.955Z,90.45
2022-09-16T00:37:14.514Z,90.58
2022-09-16T00:40:16.405Z,89.71
2022-09-16T00:43:19.922Z,89.91
2022-09-16T00:46:36.181Z,89.96
2022-09-16T00:49:37.921Z,89.90
2022-09-16T00:52:41.447Z,90.11
2022-09-16T00:55:44.603Z,90.07
2022-09-16T00:58:50.960Z,90.01
2022-09-16T01:01:55.830Z,90.20
2022-09-16T01:04:57.455Z,90.09
2022-09-16T01:07:59.440Z,90.30
2022-09-16T01:11:01.053Z,90.54
2022-09-16T01:14:22.887Z,90.47
2022-09-16T01:17:39.680Z,90.00
2022-09-16T01:21:11.695Z,90.09
2022-09-16T01:24:19.223Z,90.12
2022-09-16T01:27:26.757Z,89.85
2022-09-16T01:30:51.435Z,89.55
2022-09-16T01:34:14.704Z,89.35
2022-09-16T01:37:32.826Z,89.78
2022-09-16T01:40:37.337Z,89.96
2022-09-16T01:44:12.738Z,89.39
2022-09-16T01:47:27.421Z,89.18
2022-09-16T01:50:59.532Z,89.67
2022-09-16T01:54:21.299Z,89.69
2022-09-16T01:57:43.058Z,89.73
2022-09-16T02:00:48.831Z,89.99
2022-09-16T02:03:59.220Z,89.35
2022-09-16T02:07:04.020Z,89.18
2022-09-16T02:10:20.395Z,89.40
2022-09-16T02:13:40.182Z,89.06
2022-09-16T02:17:02.284Z,89.74
2022-09-16T02:20:11.194Z,89.51
2022-09-16T02:23:20.354Z,89.67
2022-09-16T02:26:29.120Z,90.02
2022-09-16T02:29:42.680Z,89.52
2022-09-16T02:32:48.600Z,89.43
2022-09-16T02:35:54.105Z,89.43
2022-09-16T02:39:09.372Z,89.63
2022-09-16T02:42:11.695Z,89.86
2022-09-16T02:45:13.985Z,89.98
2022-09-16T02:48:39.432Z,89.45
2022-09-16T02:52:04.828Z,89.74
2022-09-16T02:55:22.582Z,90.04
2022-09-16T02:58:24.189Z,89.51
2022-09-16T03:01:27.275Z,89.56
2022-09-16T03:04:29.171Z,89.39
2022-09-16T03:07:30.877Z,89.49
2022-09-16T03:10:42.604Z,90.06
2022-09-16T03:14:04.342Z,89.79
2022-09-16T03:17:11.816Z,89.88
2022-09-16T03:20:44.234Z,90.04
2022-09-16T03:23:54.763Z,89.87
2022-09-16T03:27:08.998Z,89.91
2022-09-16T03:30:11.711Z,89.90
2022-09-16T03:33:23.670Z,89.81
2022-09-16T03:36:33.461Z,89.83
2022-09-16T03:39:36.857Z,89.96
2022-09-16T03:42:40.125Z,89.78
2022-09-16T03:45:42.834Z,89.90
2022-09-16T03:48:44.856Z,90.01
2022-09-16T03:51:46.497Z,90.15
2022-09-16T03:54:48.088Z,90.06
2022-09-16T03:57:49.653Z,90.25
2022-09-16T04:00:51.742Z,90.57
2022-09-16T04:03:53.436Z,90.13
2022-09-16T04:06:55.422Z,89.82
2022-09-16T04:09:57.004Z,89.94
2022-09-16T04:12:58.853Z,90.01
2022-09-16T04:16:01.605Z,90.16
2022-09-16T04:19:03.329Z,90.31
2022-09-16T04:22:05.056Z,90.31
2022-09-16T04:25:07.402Z,90.83
2022-09-16T04:28:09.130Z,90.29
2022-09-16T04:31:12.606Z,90.08
2022-09-16T04:34:14.341Z,89.87
2022-09-16T04:37:15.953Z,89.42
2022-09-16T04:40:17.694Z,89.96
2022-09-16T04:43:19.504Z,90.12
2022-09-16T04:46:21.065Z,89.62
2022-09-16T04:49:22.691Z,89.99
2022-09-16T04:52:24.385Z,90.18
2022-09-16T04:55:25.960Z,90.05
2022-09-16T04:58:29.438Z,89.96
2022-09-16T05:01:33.324Z,90.00
2022-09-16T05:04:34.935Z,90.06
2022-09-16T05:07:36.499Z,90.52
2022-09-16T05:10:38.126Z,90.76
2022-09-16T05:13:40.138Z,90.57
2022-09-16T05:16:42.200Z,90.73
2022-09-16T05:19:43.708Z,90.29
2022-09-16T05:22:45.683Z,90.26
2022-09-16T05:25:47.262Z,90.24
2022-09-16T05:28:50.882Z,89.70
2022-09-16T05:31:52.475Z,89.71
2022-09-16T05:34:54.817Z,89.88
2022-09-16T05:37:56.401Z,89.05
2022-09-16T05:41:05.233Z,88.89
2022-09-16T05:44:07.088Z,88.85
2022-09-16T05:47:08.642Z,88.59
2022-09-16T05:50:10.201Z,88.57
2022-09-16T05:53:11.785Z,88.62
2022-09-16T05:56:18.878Z,88.68
2022-09-16T05:59:20.806Z,88.25
2022-09-16T06:02:22.475Z,88.69
2022-09-16T06:05:24.183Z,88.28
2022-09-16T06:08:26.395Z,88.08
2022-09-16T06:11:29.008Z,88.52
2022-09-16T06:14:31.076Z,88.08
2022-09-16T06:17:32.725Z,87.60
2022-09-16T06:20:36.577Z,87.83
2022-09-16T06:23:39.758Z,87.51
2022-09-16T06:26:42.949Z,86.89
2022-09-16T06:29:44.551Z,86.20
2022-09-16T06:32:46.120Z,85.17
2022-09-16T06:35:47.782Z,85.34
2022-09-16T06:38:51.220Z,85.11
2022-09-16T06:41:53.317Z,84.10
2022-09-16T06:45:04.817Z,83.68
2022-09-16T06:48:06.611Z,83.40
2022-09-16T06:51:11.021Z,83.00
2022-09-16T06:54:12.792Z,83.42
2022-09-16T06:57:14.401Z,83.26
2022-09-16T07:00:16.083Z,82.38
2022-09-16T07:03:17.961Z,82.27
2022-09-16T07:06:21.317Z,82.37
2022-09-16T07:09:23.386Z,82.59
2022-09-16T07:12:25.052Z,82.81
2022-09-16T07:15:26.602Z,82.66
2022-09-16T07:18:30.243Z,82.32
2022-09-16T07:21:32.093Z,82.62
2022-09-16T07:24:34.210Z,82.18
2022-09-16T07:27:35.881Z,82.74
2022-09-16T07:30:39.034Z,82.17
2022-09-16T07:33:43.081Z,80.47
2022-09-16T07:36:47.326Z,80.61
2022-09-16T07:39:49.829Z,80.96
2022-09-16T07:42:51.462Z,80.22
2022-09-16T07:45:59.627Z,79.66
2022-09-16T07:49:03.197Z,79.21
2022-09-16T07:52:04.833Z,77.48
2022-09-16T07:55:06.577Z,77.33
2022-09-16T07:58:08.211Z,76.70
2022-09-16T08:01:09.920Z,78.58
2022-09-16T08:04:12.285Z,77.74
2022-09-16T08:07:13.945Z,76.93
2022-09-16T08:10:16.268Z,76.62
2022-09-16T08:13:18.007Z,77.21
2022-09-16T08:16:22.069Z,75.61
2022-09-16T08:19:23.667Z,75.62
2022-09-16T08:22:25.862Z,76.91
2022-09-16T08:25:27.524Z,75.71
2022-09-16T08:28:39.937Z,73.84
2022-09-16T08:31:52.079Z,73.10
2022-09-16T08:34:53.717Z,72.05
2022-09-16T08:37:56.593Z,72.60
2022-09-16T08:41:08.592Z,72.27
2022-09-16T08:44:34.170Z,73.21
2022-09-16T08:48:04.205Z,71.65
2022-09-16T08:51:09.630Z,72.12
2022-09-16T08:54:18.319Z,72.41
2022-09-16T08:57:23.482Z,69.26
2022-09-16T09:00:25.332Z,69.84
2022-09-16T09:03:46.953Z,69.79
2022-09-16T09:06:52.623Z,70.95
2022-09-16T09:10:25.823Z,68.03
2022-09-16T09:13:55.744Z,69.59
2022-09-16T09:17:19.351Z,70.31
2022-09-16T09:20:58.638Z,67.10
2022-09-16T09:24:18.301Z,67.45
2022-09-16T09:27:41.779Z,68.84
2022-09-16T09:30:59.935Z,67.75
2022-09-16T09:34:20.150Z,64.95
2022-09-16T09:37:42.489Z,65.34
2022-09-16T09:40:52.529Z,66.52
2022-09-16T09:44:04.674Z,68.30
2022-09-16T09:47:21.762Z,67.56
2022-09-16T09:50:26.420Z,65.57
2022-09-16T09:53:43.842Z,63.98
2022-09-16T09:56:46.162Z,66.36
2022-09-16T09:59:55.530Z,65.10
2022-09-16T10:03:11.556Z,63.61
2022-09-16T10:06:13.378Z,63.43
2022-09-16T10:09:17.016Z,61.04
2022-09-16T10:12:33.815Z,62.34
2022-09-16T10:15:36.221Z,60.45
2022-09-16T10:18:38.244Z,61.50
2022-09-16T10:21:55.246Z,61.51
2022-09-16T10:24:58.367Z,62.27
2022-09-16T10:28:02.165Z,62.32
2022-09-16T10:31:08.461Z,61.52
2022-09-16T10:34:23.889Z,61.15
2022-09-16T10:37:28.100Z,63.15
2022-09-16T10:40:31.117Z,60.60
2022-09-16T10:43:32.873Z,60.42
2022-09-16T10:46:35.160Z,62.20
2022-09-16T10:49:50.361Z,59.00
2022-09-16T10:52:53.538Z,58.25
2022-09-16T10:56:05.606Z,59.47
2022-09-16T10:59:12.668Z,58.34
2022-09-16T11:02:49.903Z,57.38
2022-09-16T11:06:03.658Z,59.44
2022-09-16T11:09:40.792Z,60.22
2022-09-16T11:13:09.930Z,57.15
2022-09-16T11:16:39.317Z,57.58
2022-09-16T11:19:54.880Z,55.80
2022-09-16T11:23:18.289Z,54.88
2022-09-16T11:27:00.871Z,54.42
2022-09-16T11:30:15.198Z,54.84
2022-09-16T11:33:22.524Z,55.08
2022-09-16T11:36:35.730Z,53.86
2022-09-16T11:39:40.028Z,54.55
2022-09-16T11:42:49.319Z,53.36
2022-09-16T11:46:07.527Z,53.09
2022-09-16T11:49:27.590Z,53.75
2022-09-16T11:52:46.826Z,60.51
2022-09-16T11:56:15.742Z,67.86
2022-09-16T11:59:40.258Z,74.92
2022-09-16T12:03:04.661Z,79.19
2022-09-16T12:06:12.434Z,72.37
2022-09-16T12:09:20.206Z,72.04
2022-09-16T12:12:45.319Z,71.37
2022-09-16T12:15:59.746Z,72.12
2022-09-16T12:19:11.298Z,72.64
2022-09-16T12:22:22.785Z,70.90
2022-09-16T12:25:38.243Z,64.87
2022-09-16T12:28:49.031Z,65.05
2022-09-16T12:31:51.279Z,65.41
2022-09-16T12:35:06.243Z,66.68
2022-09-16T12:38:18.418Z,65.09
2022-09-16T12:41:35.107Z,62.83
2022-09-16T12:44:58.753Z,56.52
2022-09-16T12:48:28.780Z,58.47
2022-09-16T12:51:50.126Z,57.34
2022-09-16T12:55:07.681Z,59.79
2022-09-16T12:58:49.252Z,57.02
2022-09-16T13:01:59.662Z,52.95
2022-09-16T13:05:14.406Z,51.83
2022-09-16T13:08:23.203Z,53.54
2022-09-16T13:12:16.520Z,55.17
2022-09-16T13:14:57.072Z,56.59
2022-09-16T13:18:21.126Z,59.20
2022-09-16T13:21:29.882Z,58.94
2022-09-16T13:24:38.045Z,60.13
2022-09-16T13:27:51.995Z,59.34
2022-09-16T13:30:54.552Z,60.59
2022-09-16T13:33:59.207Z,62.11
2022-09-16T13:37:00.799Z,63.17
2022-09-16T13:40:26.450Z,62.52
2022-09-16T13:43:36.547Z,62.47
2022-09-16T13:46:38.612Z,62.83
2022-09-16T13:49:47.040Z,68.18
2022-09-16T13:52:50.452Z,72.49
2022-09-16T13:55:55.713Z,74.91
2022-09-16T13:59:21.807Z,76.06
2022-09-16T14:02:35.387Z,73.78
2022-09-16T14:06:03.724Z,76.97
2022-09-16T14:09:20.412Z,74.28
2022-09-16T14:12:36.548Z,74.50
2022-09-16T14:15:43.909Z,75.64
2022-09-16T14:18:57.500Z,75.00
2022-09-16T14:22:16.980Z,73.39
2022-09-16T14:25:29.415Z,70.47
2022-09-16T14:28:32.352Z,70.72
2022-09-16T14:31:37.431Z,71.74
2022-09-16T14:34:39.069Z,75.68
2022-09-16T14:37:44.589Z,78.85
2022-09-16T14:40:46.755Z,80.18
2022-09-16T14:43:48.749Z,76.63
2022-09-16T14:47:08.835Z,79.33
2022-09-16T14:50:19.458Z,80.30
2022-09-16T14:53:35.301Z,80.62
2022-09-16T14:56:38.467Z,79.67
2022-09-16T14:59:44.561Z,79.96
2022-09-16T15:02:52.806Z,80.10
2022-09-16T15:05:55.859Z,77.99
2022-09-16T15:09:06.617Z,78.34
2022-09-16T15:12:19.847Z,78.95
2022-09-16T15:15:27.526Z,78.72
2022-09-16T15:18:34.808Z,81.10
2022-09-16T15:21:38.681Z,80.18
2022-09-16T15:24:41.563Z,78.67
2022-09-16T15:27:43.124Z,79.40
2022-09-16T15:30:50.596Z,77.20
2022-09-16T15:33:52.548Z,77.51
2022-09-16T15:36:58.650Z,76.07
2022-09-16T15:40:20.921Z,75.07
2022-09-16T15:43:29.505Z,73.77
2022-09-16T15:46:31.323Z,75.21
2022-09-16T15:49:38.255Z,72.86
2022-09-16T15:52:48.986Z,72.17
2022-09-16T15:56:22.608Z,71.42
2022-09-16T15:59:51.120Z,70.78
2022-09-16T16:02:57.391Z,71.05
2022-09-16T16:05:59.155Z,70.50
2022-09-16T16:09:00.696Z,69.09
2022-09-16T16:12:07.531Z,70.44
2022-09-16T16:15:09.243Z,70.08
2022-09-16T16:18:12.297Z,69.59
2022-09-16T16:21:16.191Z,68.65
2022-09-16T16:24:17.926Z,69.29
2022-09-16T16:27:20.280Z,69.74
2022-09-16T16:30:21.919Z,69.56
2022-09-16T16:33:23.511Z,69.74
2022-09-16T16:36:25.244Z,71.70
2022-09-16T16:39:26.868Z,71.09
2022-09-16T16:42:28.860Z,70.44
2022-09-16T16:45:31.200Z,70.25
2022-09-16T16:48:32.818Z,69.75
2022-09-16T16:51:34.507Z,71.36
2022-09-16T16:54:36.330Z,70.53
2022-09-16T16:57:37.951Z,70.47
2022-09-16T17:00:40.009Z,69.83
2022-09-16T17:03:42.312Z,70.27
2022-09-16T17:06:44.897Z,68.64
2022-09-16T17:09:46.418Z,70.02
2022-09-16T17:12:48.016Z,68.66
2022-09-16T17:15:49.798Z,70.48
2022-09-16T17:18:52.754Z,69.55
2022-09-16T17:21:55.813Z,69.95
2022-09-16T17:24:57.767Z,68.58
2022-09-16T17:27:59.474Z,69.31
2022-09-16T17:31:01.137Z,69.10
2022-09-16T17:34:07.371Z,70.15
2022-09-16T17:37:08.996Z,70.31
2022-09-16T17:40:11.057Z,69.79
2022-09-16T17:43:15.682Z,70.54
2022-09-16T17:46:20.170Z,70.48
2022-09-16T17:49:23.774Z,71.45
2022-09-16T17:52:25.595Z,71.75
2022-09-16T17:55:29.984Z,71.12
2022-09-16T17:58:32.065Z,72.36
2022-09-16T18:06:47.400Z,70.75
2022-09-16T18:10:39.170Z,71.77
2022-09-16T18:18:24.697Z,69.99
2022-09-16T18:30:49.538Z,71.75
2022-09-16T19:00:28.672Z,78.51
2022-09-16T19:04:11.011Z,80.33
2022-09-16T19:11:16.004Z,83.54
2022-09-16T19:32:43.910Z,91.90
2022-09-16T19:39:32.909Z,92.52
2022-09-16T19:43:10.568Z,93.24
2022-09-16T19:50:32.361Z,94.05
2022-09-16T19:53:42.214Z,94.14
2022-09-16T20:00:57.586Z,93.61
2022-09-16T20:04:11.829Z,94.97
2022-09-16T20:07:30.942Z,95.14
2022-09-16T20:10:32.677Z,95.48
2022-09-16T20:14:09.298Z,95.47
2022-09-16T20:34:31.345Z,97.55
2022-09-16T20:37:53.191Z,96.76
2022-09-16T20:45:48.655Z,97.96
2022-09-16T20:49:16.908Z,97.30
2022-09-16T21:03:41.062Z,96.67
2022-09-16T21:11:53.225Z,98.60
2022-09-16T21:15:17.413Z,98.50
2022-09-16T21:18:50.760Z,98.17
2022-09-16T21:22:59.645Z,97.91
2022-09-16T21:29:57.379Z,98.81
2022-09-16T21:38:18.531Z,100.00
2022-09-16T21:41:24.625Z,100.00
2022-09-16T21:44:29.031Z,100.00
2022-09-16T21:47:38.147Z,100.00
2022-09-16T21:59:01.052Z,100.00
2022-09-16T22:02:12.311Z,100.00
2022-09-16T22:06:03.727Z,100.00
2022-09-16T22:09:21.594Z,100.00
2022-09-16T22:12:26.930Z,100.00
2022-09-16T22:15:31.195Z,100.00
2022-09-16T22:18:42.571Z,100.00
2022-09-16T22:22:02.486Z,100.00
2022-09-16T22:25:05.103Z,100.00
2022-09-16T22:28:09.588Z,100.00
2022-09-16T22:31:16.674Z,100.00
2022-09-16T22:34:18.483Z,100.00
2022-09-16T22:37:20.049Z,100.00
2022-09-16T22:40:21.781Z,100.00
2022-09-16T22:43:23.490Z,100.00
2022-09-16T22:46:32.293Z,100.00
2022-09-16T22:49:34.085Z,100.00
2022-09-16T22:52:36.066Z,100.00
2022-09-16T22:55:37.660Z,100.00
2022-09-16T22:58:39.570Z,100.00
2022-09-16T23:01:43.487Z,100.00
2022-09-16T23:04:50.437Z,100.00
2022-09-16T23:08:04.114Z,100.00
2022-09-16T23:11:09.386Z,100.00
2022-09-16T23:14:22.570Z,100.00
2022-09-16T23:17:27.093Z,100.00
2022-09-16T23:20:28.891Z,100.00
2022-09-16T23:23:41.878Z,100.00
2022-09-16T23:26:50.535Z,100.00
2022-09-16T23:29:53.795Z,100.00
2022-09-16T23:32:57.708Z,100.00
2022-09-16T23:35:59.663Z,100.00
2022-09-16T23:39:02.088Z,100.00
2022-09-16T23:42:03.983Z,100.00
2022-09-16T23:45:06.270Z,100.00
2022-09-16T23:48:08.495Z,100.00
2022-09-16T23:51:14.183Z,100.00
2022-09-16T23:54:16.287Z,100.00
2022-09-16T23:57:17.918Z,100.00
